Map

Track Data

SID SEASON NUMBER BASIN SUBBASIN NAME ISO_TIME NATURE LAT LON WMO_WIND WMO_PRES WMO_AGENCY TRACK_TYPE DIST2LAND LANDFALL IFLAG USA_AGENCY USA_ATCF_ID USA_LAT USA_LON USA_RECORD USA_STATUS USA_WIND USA_PRES USA_SSHS USA_R34_NE USA_R34_SE USA_R34_SW USA_R34_NW USA_R50_NE USA_R50_SE USA_R50_SW USA_R50_NW USA_R64_NE USA_R64_SE USA_R64_SW USA_R64_NW USA_POCI USA_ROCI USA_RMW USA_EYE TOKYO_LAT TOKYO_LON TOKYO_GRADE TOKYO_WIND TOKYO_PRES TOKYO_R50_DIR TOKYO_R50_LONG TOKYO_R50_SHORT TOKYO_R30_DIR TOKYO_R30_LONG TOKYO_R30_SHORT TOKYO_LAND CMA_LAT CMA_LON CMA_CAT CMA_WIND CMA_PRES HKO_LAT HKO_LON HKO_CAT HKO_WIND HKO_PRES NEWDELHI_LAT NEWDELHI_LON NEWDELHI_GRADE NEWDELHI_WIND NEWDELHI_PRES NEWDELHI_CI NEWDELHI_DP NEWDELHI_POCI REUNION_LAT REUNION_LON REUNION_TYPE REUNION_WIND REUNION_PRES REUNION_TNUM REUNION_CI REUNION_RMW REUNION_R34_NE REUNION_R34_SE REUNION_R34_SW REUNION_R34_NW REUNION_R50_NE REUNION_R50_SE REUNION_R50_SW REUNION_R50_NW REUNION_R64_NE REUNION_R64_SE REUNION_R64_SW REUNION_R64_NW BOM_LAT BOM_LON BOM_TYPE BOM_WIND BOM_PRES BOM_TNUM BOM_CI BOM_RMW BOM_R34_NE BOM_R34_SE BOM_R34_SW BOM_R34_NW BOM_R50_NE BOM_R50_SE BOM_R50_SW BOM_R50_NW BOM_R64_NE BOM_R64_SE BOM_R64_SW BOM_R64_NW BOM_ROCI BOM_POCI BOM_EYE BOM_POS_METHOD BOM_PRES_METHOD NADI_LAT NADI_LON NADI_CAT NADI_WIND NADI_PRES WELLINGTON_LAT WELLINGTON_LON WELLINGTON_WIND WELLINGTON_PRES DS824_LAT DS824_LON DS824_STAGE DS824_WIND DS824_PRES TD9636_LAT TD9636_LON TD9636_STAGE TD9636_WIND TD9636_PRES TD9635_LAT TD9635_LON TD9635_WIND TD9635_PRES TD9635_ROCI NEUMANN_LAT NEUMANN_LON NEUMANN_CLASS NEUMANN_WIND NEUMANN_PRES MLC_LAT MLC_LON MLC_CLASS MLC_WIND MLC_PRES USA_GUST BOM_GUST BOM_GUST_PER REUNION_GUST REUNION_GUST_PER USA_SEAHGT USA_SEARAD_NE USA_SEARAD_SE USA_SEARAD_SW USA_SEARAD_NW STORM_SPEED STORM_DIR
1968307N11087 1968 113 NI BB NOT_NAMED 1968-11-01 18:00:00 TS 10.6000 87.3000 main 690 670 O________O____ jtwc_io IO121968 10.6000 87.3000 -1 10.6000 87.3000 TC 3 282
1968307N11087 1968 113 NI BB NOT_NAMED 1968-11-01 21:00:00 TS 10.6350 87.1400 main 670 665 P________P____ IO121968 10.6350 87.1400 -1 10.6350 87.1400 TC 3 289
1968307N11087 1968 113 NI BB NOT_NAMED 1968-11-02 00:00:00 TS 10.7000 87.0000 main 665 655 O________O____ jtwc_io IO121968 10.7000 87.0000 -1 10.7000 87.0000 TC 25 3 305
1968307N11087 1968 113 NI BB NOT_NAMED 1968-11-02 03:00:00 TS 10.8067 86.8933 main 660 655 P________PO___ IO121968 10.8075 86.8925 -1 10.8075 86.8925 TC 25 10.8000 86.9000 1 3 314
1968307N11087 1968 113 NI BB NOT_NAMED 1968-11-02 06:00:00 TS 10.8888 86.8028 main 655 645 O________OP___ jtwc_io IO121968 10.9000 86.8000 -1 10.9000 86.8000 TC 25 10.8438 86.8141 1 2 296
1968307N11087 1968 113 NI BB NOT_NAMED 1968-11-02 09:00:00 TS 10.8973 86.7061 main 645 635 P________PP___ IO121968 10.9000 86.7000 -1 10.9000 86.7000 TC 25 10.8900 86.7225 1 2 277
1968307N11087 1968 113 NI BB NOT_NAMED 1968-11-02 12:00:00 TS 10.9138 86.6066 main 635 630 O________OP___ jtwc_io IO121968 10.9000 86.6000 -1 10.9000 86.6000 TC 25 10.9413 86.6197 1 2 297
1968307N11087 1968 113 NI BB NOT_NAMED 1968-11-02 15:00:00 TS 10.9950 86.5100 main 630 620 P________PO___ IO121968 10.9925 86.5150 -1 10.9925 86.5150 TC 25 11.0000 86.5000 1 3 309
1968307N11087 1968 113 NI BB NOT_NAMED 1968-11-02 18:00:00 TS 11.0893 86.3862 main 626 607 O________OP___ jtwc_io IO121968 11.1000 86.4000 -1 11.1000 86.4000 TC 25 11.0678 86.3587 1 3 297
1968307N11087 1968 113 NI BB NOT_NAMED 1968-11-02 21:00:00 TS 11.1475 86.2083 main 607 593 P________PP___ IO121968 11.1500 86.2150 -1 11.1500 86.2150 TC 25 11.1424 86.1950 1 4 287
1968307N11087 1968 113 NI BB NOT_NAMED 1968-11-03 00:00:00 TS 11.2070 86.0029 main 593 581 O________OP___ jtwc_io IO121968 11.2000 86.0000 -1 11.2000 86.0000 TC 25 11.2209 86.0087 1 4 291
1968307N11087 1968 113 NI BB NOT_NAMED 1968-11-03 03:00:00 TS 11.3000 85.8100 main 581 569 P________PO___ IO121968 11.3000 85.8150 -1 11.3000 85.8150 TC 25 11.3000 85.8000 1 4 294
1968307N11087 1968 113 NI BB NOT_NAMED 1968-11-03 06:00:00 TS 11.3917 85.5892 main 569 541 O________OP___ jtwc_io IO121968 11.4000 85.6000 -1 11.4000 85.6000 TC 25 11.3750 85.5675 1 5 287
1968307N11087 1968 113 NI BB NOT_NAMED 1968-11-03 09:00:00 TS 11.4501 85.3050 main 547 521 P________PP___ IO121968 11.4501 85.3000 -1 11.4501 85.3000 TC 25 11.4501 85.3150 1 6 282
1968307N11087 1968 113 NI BB NOT_NAMED 1968-11-03 12:00:00 TS 11.5083 85.0183 main 521 507 O________OP___ jtwc_io IO121968 11.5000 85.0000 -1 11.5000 85.0000 TC 25 11.5250 85.0550 1 5 287
1968307N11087 1968 113 NI BB NOT_NAMED 1968-11-03 15:00:00 TS 11.6000 84.7900 main 507 487 P________PO___ IO121968 11.6000 84.7850 -1 11.6000 84.7850 TC 25 11.6000 84.8000 1 4 293
1968307N11087 1968 113 NI BB NOT_NAMED 1968-11-03 18:00:00 TS 11.6807 84.6000 main 487 465 O________OP___ jtwc_io IO121968 11.7000 84.6000 -1 11.7000 84.6000 TC 25 11.6422 84.5999 1 4 289
1968307N11087 1968 113 NI BB NOT_NAMED 1968-11-03 21:00:00 TS 11.7248 84.4155 main 465 442 P________PP___ IO121968 11.7424 84.4224 -1 11.7424 84.4224 TC 25 11.6895 84.4018 1 4 285
1968307N11087 1968 113 NI BB NOT_NAMED 1968-11-04 00:00:00 TS 11.7890 84.1926 main 442 407 O________OP___ jtwc_io IO121968 11.8000 84.2000 -1 11.8000 84.2000 TC 25 11.7671 84.1779 1 5 290
1968307N11087 1968 113 NI BB NOT_NAMED 1968-11-04 03:00:00 TS 11.9083 83.8916 main 407 361 P________PO___ IO121968 11.9125 83.8874 -1 11.9125 83.8874 TC 25 11.9000 83.9000 1 7 295
1968307N11087 1968 113 NI BB NOT_NAMED 1968-11-04 06:00:00 TS 12.1072 83.5109 main 361 315 O________OP___ jtwc_io IO121968 12.1000 83.5000 -1 12.1000 83.5000 TC 25 12.1217 83.5328 1 9 301
1968307N11087 1968 113 NI BB NOT_NAMED 1968-11-04 09:00:00 TS 12.3843 83.0752 main 315 258 P________PP___ IO121968 12.3775 83.0576 -1 12.3775 83.0576 TC 30 12.3977 83.1104 1 11 304
1968307N11087 1968 113 NI BB NOT_NAMED 1968-11-04 12:00:00 TS 12.6999 82.6192 main 258 208 O________OP___ jtwc_io IO121968 12.7000 82.6000 -1 12.7000 82.6000 TC 35 12.6998 82.6577 1 11 306
1968307N11087 1968 113 NI BB NOT_NAMED 1968-11-04 15:00:00 TS 13.0049 82.1999 main 208 162 P________PO___ IO121968 13.0074 82.1999 -1 13.0074 82.1999 TC 35 13.0000 82.2000 2 10 306
1968307N11087 1968 113 NI BB NOT_NAMED 1968-11-04 18:00:00 TS 13.2905 81.7830 main 162 119 O________OP___ jtwc_io IO121968 13.3000 81.8000 -1 13.3000 81.8000 TC 35 13.2763 81.7576 2 10 303
1968307N11087 1968 113 NI BB NOT_NAMED 1968-11-04 21:00:00 TS 13.5474 81.3488 main 108 64 P________PP___ IO121968 13.5602 81.3627 -1 13.5602 81.3627 TC 35 13.5302 81.3303 2 10 300
1968307N11087 1968 113 NI BB NOT_NAMED 1968-11-05 00:00:00 TS 13.7845 80.9064 main 64 31 O________OP___ jtwc_io IO121968 13.8000 80.9000 -1 13.8000 80.9000 TC 35 13.7691 80.9129 2 9 299
1968307N11087 1968 113 NI BB NOT_NAMED 1968-11-05 03:00:00 NR 14.0000 80.5000 main 31 __________O___ IO121968 -1 TC 14.0000 80.5000 3 9 299

About IBTrACS Database

This database is a web-friendly format of International Best Track Archive for Climate Stewardship (IBTrACS), a global best track data archive curated by NOAA dating back to 1842.

Updated: 2021-11-26